Time;durP1;ratioP1;P1;durP2;ratioP2;P2;SDS_P1;SDS_P2;PMS_P1;PMS_P2;Temp;Humidity;BMP_temperature;BMP_pressure;BME280_temperature;BME280_humidity;BME280_pressure;Samples;Min_cycle;Max_cycle;Signal;HPM_P1;HPM_P2
2022/06/11 00:01:12;;;;;;;17.80;9.90;;;;;;;;;;5082030;28;20040;-76
2022/06/11 00:03:38;;;;;;;15.95;9.98;;;;;;;;;;5080532;28;20103;-76
2022/06/11 00:06:04;;;;;;;16.00;11.18;;;;;;;;;;5063063;28;20102;-76
2022/06/11 00:08:31;;;;;;;14.85;10.70;;;;;;;;;;5079349;28;20036;-76
2022/06/11 00:10:57;;;;;;;15.73;10.90;;;;;;;;;;5085141;28;20040;-76
2022/06/11 00:13:23;;;;;;;18.25;11.23;;;;;;;;;;5078202;28;20080;-76
2022/06/11 00:15:50;;;;;;;16.60;10.80;;;;;;;;;;5072056;28;20041;-76
2022/06/11 00:18:17;;;;;;;16.30;11.10;;;;;;;;;;5066195;28;20044;-76
2022/06/11 00:20:43;;;;;;;14.75;9.57;;;;;;;;;;5079539;28;20332;-76
2022/06/11 00:23:09;;;;;;;18.00;11.55;;;;;;;;;;5065744;28;20049;-76
2022/06/11 00:25:35;;;;;;;17.25;10.43;;;;;;;;;;5073351;28;20048;-76
2022/06/11 00:28:02;;;;;;;15.63;9.15;;;;;;;;;;5082259;28;20079;-76
2022/06/11 00:30:28;;;;;;;14.75;9.20;;;;;;;;;;5083422;28;20100;-76
2022/06/11 00:32:58;;;;;;;14.10;9.60;;;;;;;;;;5082161;28;20052;-75
2022/06/11 00:35:24;;;;;;;14.38;9.23;;;;;;;;;;5067575;28;20368;-75
2022/06/11 00:37:50;;;;;;;14.38;9.38;;;;;;;;;;5074793;28;20080;-75
2022/06/11 00:40:17;;;;;;;12.30;8.45;;;;;;;;;;5072468;28;20044;-75
2022/06/11 00:42:46;;;;;;;12.07;9.43;;;;;;;;;;5083541;28;20064;-75
2022/06/11 00:45:30;;;;;;;13.13;8.95;;;;;;;;;;5080210;28;20395;-75
2022/06/11 00:48:06;;;;;;;15.93;8.43;;;;;;;;;;5071512;28;20056;-76
2022/06/11 00:50:37;;;;;;;13.90;8.25;;;;;;;;;;5064412;28;20041;-75
2022/06/11 00:53:04;;;;;;;14.55;8.55;;;;;;;;;;5080262;28;20059;-76
2022/06/11 00:55:36;;;;;;;14.20;8.40;;;;;;;;;;5081251;28;20060;-75
2022/06/11 00:58:05;;;;;;;12.45;8.30;;;;;;;;;;5065934;28;20071;-75
2022/06/11 01:00:39;;;;;;;12.52;7.93;;;;;;;;;;5079034;28;20048;-75
2022/06/11 01:03:06;;;;;;;17.42;9.02;;;;;;;;;;5066283;28;20134;-75
2022/06/11 01:05:33;;;;;;;12.27;8.38;;;;;;;;;;5062676;28;20049;-75
2022/06/11 01:08:18;;;;;;;15.85;9.23;;;;;;;;;;5064780;28;20048;-76
2022/06/11 01:11:02;;;;;;;17.15;9.60;;;;;;;;;;5067025;28;20064;-75
2022/06/11 01:13:36;;;;;;;16.48;9.43;;;;;;;;;;5061306;28;20040;-76
2022/06/11 01:16:10;;;;;;;14.68;9.18;;;;;;;;;;5076556;28;20041;-75
2022/06/11 01:18:37;;;;;;;13.88;9.40;;;;;;;;;;5073863;28;20055;-75
2022/06/11 01:21:09;;;;;;;14.38;9.30;;;;;;;;;;5079832;28;20124;-75
2022/06/11 01:23:44;;;;;;;12.38;9.65;;;;;;;;;;5079428;28;20037;-76
2022/06/11 01:26:29;;;;;;;14.35;9.50;;;;;;;;;;5065433;28;20483;-76
2022/06/11 01:29:24;;;;;;;15.02;9.02;;;;;;;;;;5083505;28;20041;-76
2022/06/11 01:31:54;;;;;;;16.35;9.15;;;;;;;;;;5076482;28;20051;-76
2022/06/11 01:34:26;;;;;;;15.30;9.77;;;;;;;;;;5070668;28;20037;-76
2022/06/11 01:36:56;;;;;;;15.05;10.48;;;;;;;;;;5069114;28;20385;-76
2022/06/11 01:39:41;;;;;;;13.98;10.02;;;;;;;;;;5081375;28;20402;-76
2022/06/11 01:42:22;;;;;;;15.45;10.38;;;;;;;;;;5078350;28;20063;-76
2022/06/11 01:44:58;;;;;;;14.25;9.70;;;;;;;;;;5071333;28;20067;-76
2022/06/11 01:47:24;;;;;;;16.20;9.65;;;;;;;;;;5075934;28;20036;-76
2022/06/11 01:49:50;;;;;;;13.50;10.27;;;;;;;;;;5064480;28;20051;-76
2022/06/11 01:52:20;;;;;;;15.55;10.30;;;;;;;;;;5075401;28;20443;-76
2022/06/11 01:54:49;;;;;;;12.93;8.75;;;;;;;;;;5082227;28;20094;-76
2022/06/11 01:57:34;;;;;;;15.55;9.98;;;;;;;;;;5074127;28;20048;-76
2022/06/11 02:00:07;;;;;;;14.25;9.40;;;;;;;;;;5062244;28;20060;-76
2022/06/11 02:02:51;;;;;;;16.33;10.18;;;;;;;;;;5075059;28;20053;-76
2022/06/11 02:05:24;;;;;;;11.90;9.68;;;;;;;;;;5081681;28;20043;-75
2022/06/11 02:07:58;;;;;;;12.00;8.57;;;;;;;;;;5068314;28;20053;-76
2022/06/11 02:10:28;;;;;;;14.60;9.30;;;;;;;;;;5086327;28;20048;-76
2022/06/11 02:12:59;;;;;;;12.13;8.63;;;;;;;;;;5074155;28;20112;-76
2022/06/11 02:15:29;;;;;;;12.45;8.77;;;;;;;;;;5082767;28;20511;-76
2022/06/11 02:17:57;;;;;;;14.32;9.40;;;;;;;;;;5068753;28;20048;-76
2022/06/11 02:20:25;;;;;;;11.77;8.85;;;;;;;;;;5072353;28;20064;-76
2022/06/11 02:22:56;;;;;;;11.85;8.77;;;;;;;;;;5071210;28;20114;-75
2022/06/11 02:25:24;;;;;;;14.33;8.20;;;;;;;;;;5089592;28;20036;-76
2022/06/11 02:27:53;;;;;;;14.18;8.55;;;;;;;;;;5085001;28;20040;-76
2022/06/11 02:30:21;;;;;;;12.38;8.32;;;;;;;;;;5091220;28;20036;-76
2022/06/11 02:32:48;;;;;;;12.30;8.10;;;;;;;;;;5086426;28;20055;-76
2022/06/11 02:35:23;;;;;;;13.00;8.13;;;;;;;;;;5090287;28;20040;-76
2022/06/11 02:37:49;;;;;;;18.30;8.48;;;;;;;;;;5077882;28;20067;-76
2022/06/11 02:40:20;;;;;;;12.52;8.38;;;;;;;;;;5068342;28;20391;-75
2022/06/11 02:42:46;;;;;;;;;;;;;;;;;;5078274;28;20059;-76
2022/06/11 02:45:13;;;;;;;14.15;8.52;;;;;;;;;;5068499;28;19916;-76
2022/06/11 02:47:40;;;;;;;13.82;8.38;;;;;;;;;;5075658;28;20040;-75
2022/06/11 02:50:06;;;;;;;13.65;8.25;;;;;;;;;;5068132;28;20084;-76
2022/06/11 02:52:33;;;;;;;14.85;8.60;;;;;;;;;;5072792;28;20495;-76
2022/06/11 02:54:59;;;;;;;13.80;9.10;;;;;;;;;;5070415;28;20056;-75
2022/06/11 02:57:27;;;;;;;14.30;8.75;;;;;;;;;;5075721;28;20072;-76
2022/06/11 02:59:54;;;;;;;15.02;8.48;;;;;;;;;;5076924;28;20044;-76
2022/06/11 03:02:21;;;;;;;15.23;8.98;;;;;;;;;;5073306;28;20041;-75
2022/06/11 03:04:47;;;;;;;12.98;8.80;;;;;;;;;;5090294;28;20070;-75
2022/06/11 03:07:13;;;;;;;13.63;8.30;;;;;;;;;;5077619;28;20049;-75
2022/06/11 03:09:40;;;;;;;16.00;8.60;;;;;;;;;;5088119;28;20071;-75
2022/06/11 03:12:07;;;;;;;13.43;8.45;;;;;;;;;;5085626;28;20037;-75
2022/06/11 03:14:34;;;;;;;13.90;9.23;;;;;;;;;;5084939;28;20045;-75
2022/06/11 03:17:00;;;;;;;13.63;8.70;;;;;;;;;;5087454;28;20100;-75
2022/06/11 03:19:26;;;;;;;14.85;9.27;;;;;;;;;;5070207;28;20053;-75
2022/06/11 03:21:54;;;;;;;13.90;9.30;;;;;;;;;;5075828;28;20062;-75
2022/06/11 03:24:21;;;;;;;18.38;10.32;;;;;;;;;;5087635;28;20052;-75
2022/06/11 03:26:47;;;;;;;15.07;9.35;;;;;;;;;;5098748;28;20068;-75
2022/06/11 03:29:15;;;;;;;14.10;9.70;;;;;;;;;;5080444;28;20045;-75
2022/06/11 03:31:41;;;;;;;16.13;9.95;;;;;;;;;;5091269;28;20053;-75
2022/06/11 03:34:07;;;;;;;11.60;9.15;;;;;;;;;;5076032;28;20091;-75
2022/06/11 03:36:34;;;;;;;16.60;9.90;;;;;;;;;;5076741;28;20068;-75
2022/06/11 03:39:00;;;;;;;15.40;10.60;;;;;;;;;;5092202;28;20053;-75
2022/06/11 03:41:26;;;;;;;15.23;11.10;;;;;;;;;;5092309;28;20041;-74
2022/06/11 03:43:53;;;;;;;15.60;11.38;;;;;;;;;;5076249;28;20060;-75
2022/06/11 03:46:20;;;;;;;19.42;12.50;;;;;;;;;;5085103;28;20054;-75
2022/06/11 03:48:46;;;;;;;18.48;13.68;;;;;;;;;;5081340;28;20037;-75
2022/06/11 03:51:12;;;;;;;19.42;13.23;;;;;;;;;;5071227;28;20051;-76
2022/06/11 03:53:39;;;;;;;22.08;14.45;;;;;;;;;;5072505;28;20036;-75
2022/06/11 03:56:06;;;;;;;18.55;13.48;;;;;;;;;;5071676;28;20049;-76
2022/06/11 03:58:32;;;;;;;18.17;13.32;;;;;;;;;;5087177;28;20052;-75
2022/06/11 04:01:18;;;;;;;19.05;12.18;;;;;;;;;;5091817;28;20053;-75
2022/06/11 04:03:44;;;;;;;17.92;12.90;;;;;;;;;;5086633;28;20082;-75
2022/06/11 04:06:10;;;;;;;17.02;11.60;;;;;;;;;;5087529;28;20125;-75
2022/06/11 04:08:37;;;;;;;22.88;12.20;;;;;;;;;;5077269;28;20033;-76
2022/06/11 04:11:04;;;;;;;16.45;12.20;;;;;;;;;;5085346;28;20045;-74
2022/06/11 04:13:30;;;;;;;18.48;12.45;;;;;;;;;;5086960;28;20040;-75
2022/06/11 04:15:58;;;;;;;18.75;10.45;;;;;;;;;;5089225;28;20036;-75
2022/06/11 04:18:31;;;;;;;13.57;8.93;;;;;;;;;;5073405;28;20495;-76
2022/06/11 04:20:57;;;;;;;13.45;8.35;;;;;;;;;;5068232;28;20111;-76
2022/06/11 04:23:29;;;;;;;14.75;7.57;;;;;;;;;;5080811;28;20045;-76
2022/06/11 04:25:56;;;;;;;15.00;6.47;;;;;;;;;;5081343;28;20053;-77
2022/06/11 04:28:22;;;;;;;12.40;6.22;;;;;;;;;;5086440;28;20705;-76
2022/06/11 04:30:48;;;;;;;10.52;5.22;;;;;;;;;;5086315;28;20098;-76
2022/06/11 04:33:14;;;;;;;10.20;4.93;;;;;;;;;;5084814;28;20033;-76
2022/06/11 04:35:40;;;;;;;13.52;4.53;;;;;;;;;;5076760;28;20053;-77
2022/06/11 04:38:06;;;;;;;12.23;4.75;;;;;;;;;;5079393;28;20040;-76
2022/06/11 04:40:32;;;;;;;12.90;4.30;;;;;;;;;;5084875;28;20044;-76
2022/06/11 04:42:58;;;;;;;13.73;4.40;;;;;;;;;;5076976;28;20108;-76
2022/06/11 04:45:24;;;;;;;13.52;3.90;;;;;;;;;;5085182;28;20355;-76
2022/06/11 04:47:51;;;;;;;13.80;3.90;;;;;;;;;;5082588;28;20489;-76
2022/06/11 04:50:18;;;;;;;12.40;3.75;;;;;;;;;;5067767;28;20052;-76
2022/06/11 04:52:45;;;;;;;13.80;3.90;;;;;;;;;;5084807;28;20120;-76
2022/06/11 04:55:11;;;;;;;14.45;3.40;;;;;;;;;;5076904;28;20123;-76
2022/06/11 04:57:37;;;;;;;12.18;3.28;;;;;;;;;;5087804;28;20115;-76
2022/06/11 05:00:04;;;;;;;13.63;4.10;;;;;;;;;;5083887;28;20041;-77
2022/06/11 05:02:30;;;;;;;14.18;3.33;;;;;;;;;;5089179;28;20437;-75
2022/06/11 05:04:56;;;;;;;14.93;3.20;;;;;;;;;;5086998;28;20375;-76
2022/06/11 05:07:22;;;;;;;16.10;3.60;;;;;;;;;;5086491;28;20118;-75
2022/06/11 05:09:48;;;;;;;14.40;3.63;;;;;;;;;;5088620;28;20419;-76
2022/06/11 05:12:15;;;;;;;15.07;3.33;;;;;;;;;;5087515;28;20051;-76
2022/06/11 05:14:42;;;;;;;14.77;3.90;;;;;;;;;;5084464;28;20044;-76
2022/06/11 05:17:08;;;;;;;16.73;3.95;;;;;;;;;;5083565;28;20071;-76
2022/06/11 05:19:34;;;;;;;14.18;3.85;;;;;;;;;;5089732;28;20045;-76
2022/06/11 05:22:00;;;;;;;12.38;3.17;;;;;;;;;;5078730;28;20045;-75
2022/06/11 05:24:29;;;;;;;12.98;3.47;;;;;;;;;;5072269;28;20045;-75
2022/06/11 05:27:00;;;;;;;13.70;3.22;;;;;;;;;;5069536;28;20059;-76
2022/06/11 05:29:32;;;;;;;14.68;3.63;;;;;;;;;;5070135;28;20049;-76
2022/06/11 05:31:58;;;;;;;15.05;3.40;;;;;;;;;;5080381;28;20044;-77
2022/06/11 05:34:24;;;;;;;14.35;3.45;;;;;;;;;;5078254;28;20102;-76
2022/06/11 05:36:54;;;;;;;12.77;3.45;;;;;;;;;;5081299;28;20037;-77
2022/06/11 05:39:20;;;;;;;11.57;2.83;;;;;;;;;;5062286;28;20067;-76
2022/06/11 05:41:46;;;;;;;11.93;3.10;;;;;;;;;;5065255;28;20072;-77
2022/06/11 05:44:12;;;;;;;11.27;4.00;;;;;;;;;;5085167;28;20067;-77
2022/06/11 05:46:38;;;;;;;13.55;3.75;;;;;;;;;;5067778;28;20049;-77
2022/06/11 05:49:08;;;;;;;11.57;3.10;;;;;;;;;;5066163;28;20468;-77
2022/06/11 05:51:36;;;;;;;12.90;3.67;;;;;;;;;;5068675;28;20037;-77
2022/06/11 05:54:06;;;;;;;12.80;3.42;;;;;;;;;;5076925;28;20527;-76
2022/06/11 05:56:32;;;;;;;15.32;3.80;;;;;;;;;;5060378;28;20049;-76
2022/06/11 05:59:01;;;;;;;14.15;3.45;;;;;;;;;;5072353;28;20040;-76
2022/06/11 06:01:29;;;;;;;14.70;3.33;;;;;;;;;;5077447;28;20407;-77
2022/06/11 06:03:55;;;;;;;17.05;3.90;;;;;;;;;;5065651;28;20041;-77
2022/06/11 06:06:21;;;;;;;13.07;3.30;;;;;;;;;;5068465;28;20487;-76
2022/06/11 06:08:47;;;;;;;11.82;3.22;;;;;;;;;;5059614;28;20049;-76
2022/06/11 06:11:13;;;;;;;13.63;3.58;;;;;;;;;;5062650;28;20105;-76
2022/06/11 06:13:48;;;;;;;12.88;3.08;;;;;;;;;;5082022;28;20059;-76
2022/06/11 06:16:19;;;;;;;16.70;4.32;;;;;;;;;;5070663;28;20112;-76
2022/06/11 06:18:45;;;;;;;14.25;3.55;;;;;;;;;;5067465;28;20053;-76
2022/06/11 06:21:11;;;;;;;10.40;3.03;;;;;;;;;;5087720;28;20056;-75
2022/06/11 06:23:38;;;;;;;13.32;3.50;;;;;;;;;;5082555;28;20032;-74
2022/06/11 06:26:04;;;;;;;19.48;4.10;;;;;;;;;;5072380;28;20032;-74
2022/06/11 06:28:32;;;;;;;15.65;3.92;;;;;;;;;;5071609;28;20186;-75
2022/06/11 06:30:59;;;;;;;14.13;3.38;;;;;;;;;;5065184;28;20049;-75
2022/06/11 06:33:26;;;;;;;12.90;3.85;;;;;;;;;;5064847;28;20056;-75
2022/06/11 06:35:52;;;;;;;13.90;3.67;;;;;;;;;;5076493;28;20040;-74
2022/06/11 06:38:18;;;;;;;16.75;3.97;;;;;;;;;;5068510;28;20089;-74
2022/06/11 06:40:44;;;;;;;15.27;4.00;;;;;;;;;;5070253;28;20452;-74
2022/06/11 06:43:10;;;;;;;16.63;4.50;;;;;;;;;;5074165;28;20048;-75
2022/06/11 06:45:36;;;;;;;19.75;4.13;;;;;;;;;;5077231;28;20041;-74
2022/06/11 06:48:02;;;;;;;16.35;3.65;;;;;;;;;;5082700;28;20051;-74
2022/06/11 06:50:29;;;;;;;13.82;3.85;;;;;;;;;;5077627;28;20048;-75
2022/06/11 06:52:55;;;;;;;17.00;4.35;;;;;;;;;;5080327;28;20045;-74
2022/06/11 06:55:22;;;;;;;18.15;4.38;;;;;;;;;;5080531;28;20041;-75
2022/06/11 06:57:49;;;;;;;18.73;4.32;;;;;;;;;;5060914;28;20048;-75
2022/06/11 07:00:17;;;;;;;17.73;4.22;;;;;;;;;;5073616;28;20414;-74
2022/06/11 07:02:43;;;;;;;14.00;3.95;;;;;;;;;;5076346;28;20080;-75
2022/06/11 07:05:10;;;;;;;17.95;4.10;;;;;;;;;;5079393;28;20502;-74
2022/06/11 07:07:36;;;;;;;19.40;4.60;;;;;;;;;;5075126;28;20036;-75
2022/06/11 07:10:03;;;;;;;14.57;3.90;;;;;;;;;;5071745;28;20067;-75
2022/06/11 07:12:29;;;;;;;15.35;4.30;;;;;;;;;;5080422;28;20404;-75
2022/06/11 07:14:55;;;;;;;19.35;4.30;;;;;;;;;;5084794;28;20037;-75
2022/06/11 07:17:22;;;;;;;15.75;4.10;;;;;;;;;;5061142;28;20053;-75
2022/06/11 07:19:49;;;;;;;19.95;4.95;;;;;;;;;;5081263;28;20040;-75
2022/06/11 07:22:22;;;;;;;15.65;4.03;;;;;;;;;;5078317;28;20044;-74
2022/06/11 07:24:48;;;;;;;15.23;4.20;;;;;;;;;;5079841;28;20044;-76
2022/06/11 07:27:17;;;;;;;14.85;4.57;;;;;;;;;;5071302;28;20024;-75
2022/06/11 07:29:50;;;;;;;23.70;5.03;;;;;;;;;;5074073;28;20102;-75
2022/06/11 07:32:19;;;;;;;36.00;5.18;;;;;;;;;;5081214;28;20044;-75
2022/06/11 07:34:45;;;;;;;15.60;4.03;;;;;;;;;;5072431;28;20082;-74
2022/06/11 07:37:15;;;;;;;18.38;4.25;;;;;;;;;;5066911;28;20054;-75
2022/06/11 07:39:41;;;;;;;14.90;3.80;;;;;;;;;;5070519;28;20055;-75
2022/06/11 07:42:07;;;;;;;18.38;4.10;;;;;;;;;;5071000;28;20044;-76
2022/06/11 07:44:36;;;;;;;17.48;4.28;;;;;;;;;;5095663;28;20061;-76
2022/06/11 07:47:02;;;;;;;16.27;4.07;;;;;;;;;;5083753;28;20099;-74
2022/06/11 07:49:28;;;;;;;16.63;4.20;;;;;;;;;;5083644;28;20029;-74
2022/06/11 07:51:54;;;;;;;19.45;4.78;;;;;;;;;;5085463;28;20044;-74
2022/06/11 07:54:20;;;;;;;16.35;4.18;;;;;;;;;;5089293;28;20152;-75
2022/06/11 07:56:46;;;;;;;15.18;4.45;;;;;;;;;;5073757;28;20033;-76
2022/06/11 07:59:13;;;;;;;21.05;4.20;;;;;;;;;;5071617;28;20102;-74
2022/06/11 08:01:39;;;;;;;23.58;4.80;;;;;;;;;;5082599;28;20066;-76
2022/06/11 08:04:05;;;;;;;20.08;4.47;;;;;;;;;;5085004;28;20529;-75
2022/06/11 08:06:31;;;;;;;18.45;4.45;;;;;;;;;;5092052;28;20135;-75
2022/06/11 08:08:57;;;;;;;23.98;4.72;;;;;;;;;;5067833;28;20041;-74
2022/06/11 08:11:24;;;;;;;17.25;4.05;;;;;;;;;;5082395;28;20059;-75
2022/06/11 08:13:50;;;;;;;17.67;4.47;;;;;;;;;;5089362;28;20048;-74
2022/06/11 08:16:16;;;;;;;18.10;4.15;;;;;;;;;;5072006;28;20556;-73
2022/06/11 08:18:44;;;;;;;14.13;3.90;;;;;;;;;;5075699;28;20053;-74
2022/06/11 08:21:10;;;;;;;18.80;4.15;;;;;;;;;;5080120;28;20052;-75
2022/06/11 08:23:36;;;;;;;19.58;4.40;;;;;;;;;;5090014;28;20036;-74
2022/06/11 08:26:02;;;;;;;21.73;4.57;;;;;;;;;;5094574;28;20071;-75
2022/06/11 08:28:28;;;;;;;29.15;4.65;;;;;;;;;;5068541;28;20395;-70
2022/06/11 08:30:54;;;;;;;197.48;12.10;;;;;;;;;;5060270;28;20040;-71
2022/06/11 08:33:20;;;;;;;32.05;5.63;;;;;;;;;;5074664;28;20398;-73
2022/06/11 08:35:47;;;;;;;62.58;6.50;;;;;;;;;;5065386;28;20483;-72
2022/06/11 08:38:13;;;;;;;20.30;4.10;;;;;;;;;;5083284;28;20028;-76
2022/06/11 08:40:41;;;;;;;21.30;5.15;;;;;;;;;;5097944;28;20033;-75
2022/06/11 08:43:26;;;;;;;16.88;4.55;;;;;;;;;;5101707;28;20051;-74
2022/06/11 08:45:52;;;;;;;24.00;4.65;;;;;;;;;;5101376;28;20060;-76
2022/06/11 08:48:33;;;;;;;18.52;4.35;;;;;;;;;;5090280;28;20048;-76
2022/06/11 08:51:04;;;;;;;19.15;4.63;;;;;;;;;;5096043;28;20027;-75
2022/06/11 08:53:32;;;;;;;19.23;4.47;;;;;;;;;;5101809;28;20106;-75
2022/06/11 08:55:58;;;;;;;19.38;4.55;;;;;;;;;;5103527;28;21271;-75
2022/06/11 08:58:40;;;;;;;20.23;4.50;;;;;;;;;;5094839;28;20040;-75
2022/06/11 09:01:12;;;;;;;18.92;4.00;;;;;;;;;;5084029;28;20056;-75
2022/06/11 09:03:55;;;;;;;22.92;4.57;;;;;;;;;;5081507;28;20681;-75
2022/06/11 09:06:28;;;;;;;20.38;4.75;;;;;;;;;;5081501;28;20021;-75
2022/06/11 09:09:06;;;;;;;19.77;4.28;;;;;;;;;;5081310;28;20100;-75
2022/06/11 09:11:52;;;;;;;21.25;4.72;;;;;;;;;;5081138;28;20036;-75
2022/06/11 09:14:18;;;;;;;16.77;4.25;;;;;;;;;;5081062;28;20027;-75
2022/06/11 09:16:50;;;;;;;19.52;4.32;;;;;;;;;;5081291;28;20025;-75
2022/06/11 09:19:25;;;;;;;19.85;4.53;;;;;;;;;;5081213;28;20021;-75
2022/06/11 09:22:01;;;;;;;22.50;5.85;;;;;;;;;;5081176;28;20035;-75
2022/06/11 09:24:45;;;;;;;18.73;4.28;;;;;;;;;;5080936;28;20085;-75
2022/06/11 09:27:20;;;;;;;20.88;4.50;;;;;;;;;;5080989;28;20029;-75
2022/06/11 09:30:05;;;;;;;20.10;4.38;;;;;;;;;;5080407;28;20053;-76
2022/06/11 09:32:31;;;;;;;18.55;4.35;;;;;;;;;;5080830;28;20021;-75
2022/06/11 09:35:02;;;;;;;27.23;6.18;;;;;;;;;;5080901;28;20045;-75
2022/06/11 09:37:47;;;;;;;18.98;4.28;;;;;;;;;;5080990;28;20032;-75
2022/06/11 09:40:16;;;;;;;23.48;4.80;;;;;;;;;;5080875;28;20021;-75
2022/06/11 09:43:00;;;;;;;18.55;4.57;;;;;;;;;;5079446;28;20025;-75
2022/06/11 09:45:30;;;;;;;19.17;4.53;;;;;;;;;;5080694;28;20111;-75
2022/06/11 09:48:04;;;;;;;18.35;4.45;;;;;;;;;;5080694;28;20085;-75
2022/06/11 09:50:34;;;;;;;23.50;4.20;;;;;;;;;;5080768;28;20068;-75
2022/06/11 09:53:04;;;;;;;17.88;4.55;;;;;;;;;;5080596;28;20063;-75
2022/06/11 09:55:36;;;;;;;19.35;4.25;;;;;;;;;;5080556;28;20041;-75
2022/06/11 09:58:21;;;;;;;16.88;3.97;;;;;;;;;;5080536;28;20081;-74
2022/06/11 10:00:48;;;;;;;15.82;3.55;;;;;;;;;;5080345;28;20029;-75
2022/06/11 10:05:56;;;;;;;19.35;3.90;;;;;;;;;;5080095;28;20025;-74
2022/06/11 10:08:28;;;;;;;17.00;3.38;;;;;;;;;;5080164;28;20049;-75
2022/06/11 10:10:54;;;;;;;15.45;3.65;;;;;;;;;;5080251;28;20025;-74
2022/06/11 10:13:33;;;;;;;17.33;3.50;;;;;;;;;;5080142;28;20032;-75
2022/06/11 10:16:02;;;;;;;14.02;3.22;;;;;;;;;;5080080;28;20029;-74
2022/06/11 10:18:30;;;;;;;17.35;3.90;;;;;;;;;;5080212;28;20023;-75
2022/06/11 10:20:59;;;;;;;17.70;3.72;;;;;;;;;;5080165;28;20052;-75
2022/06/11 10:23:28;;;;;;;17.85;3.78;;;;;;;;;;5079646;28;20025;-74
2022/06/11 10:25:57;;;;;;;13.57;3.25;;;;;;;;;;5080018;28;20048;-74
2022/06/11 10:28:35;;;;;;;16.15;3.42;;;;;;;;;;5079749;28;20025;-74
2022/06/11 10:31:04;;;;;;;12.43;2.65;;;;;;;;;;5079855;28;20039;-74
2022/06/11 10:33:33;;;;;;;17.02;3.53;;;;;;;;;;5079507;28;20036;-74
2022/06/11 10:36:19;;;;;;;16.17;3.35;;;;;;;;;;5079696;28;20029;-75
2022/06/11 10:38:54;;;;;;;13.95;3.10;;;;;;;;;;5079836;28;20021;-76
2022/06/11 10:41:39;;;;;;;17.67;3.67;;;;;;;;;;5079582;28;20032;-74
2022/06/11 10:44:38;;;;;;;14.15;3.42;;;;;;;;;;5079485;28;20036;-75
2022/06/11 10:47:27;;;;;;;16.02;3.60;;;;;;;;;;5057399;28;20033;-75
2022/06/11 10:50:01;;;;;;;17.80;3.47;;;;;;;;;;5076639;28;20089;-75
2022/06/11 10:52:27;;;;;;;16.42;3.63;;;;;;;;;;5079116;28;20056;-75
2022/06/11 10:54:53;;;;;;;19.90;3.72;;;;;;;;;;5079008;28;20060;-75
2022/06/11 10:57:25;;;;;;;16.98;3.17;;;;;;;;;;5079370;28;20040;-75
2022/06/11 11:00:14;;;;;;;15.38;3.42;;;;;;;;;;5079360;28;20029;-75
2022/06/11 11:02:54;;;;;;;17.00;3.50;;;;;;;;;;5058429;28;20037;-74
2022/06/11 11:05:21;;;;;;;13.85;2.85;;;;;;;;;;5058034;28;20035;-75
2022/06/11 11:08:01;;;;;;;13.25;2.88;;;;;;;;;;5057644;28;20080;-75
2022/06/11 11:10:36;;;;;;;15.93;3.78;;;;;;;;;;5058155;28;20029;-74
2022/06/11 11:13:04;;;;;;;14.98;3.40;;;;;;;;;;5058095;28;20091;-75
2022/06/11 11:15:38;;;;;;;16.00;3.13;;;;;;;;;;5058106;28;20029;-74
2022/06/11 11:18:10;;;;;;;13.40;3.28;;;;;;;;;;5057885;28;20075;-74
2022/06/11 11:20:39;;;;;;;14.13;3.38;;;;;;;;;;5057571;28;20045;-76
2022/06/11 11:23:15;;;;;;;12.02;3.03;;;;;;;;;;5057569;28;20057;-75
2022/06/11 11:25:41;;;;;;;13.07;3.67;;;;;;;;;;5057646;28;20049;-76
2022/06/11 11:28:15;;;;;;;13.05;2.85;;;;;;;;;;5057993;28;20021;-76
2022/06/11 11:30:41;;;;;;;14.75;2.97;;;;;;;;;;5057849;28;20045;-76
2022/06/11 11:33:15;;;;;;;13.85;2.65;;;;;;;;;;5057475;28;20033;-76
2022/06/11 11:35:41;;;;;;;13.60;2.97;;;;;;;;;;5057075;28;20030;-75
2022/06/11 11:38:20;;;;;;;10.80;2.60;;;;;;;;;;5057255;28;20058;-75
2022/06/11 11:40:55;;;;;;;12.77;2.88;;;;;;;;;;5078569;28;20041;-75
2022/06/11 11:43:22;;;;;;;12.27;2.75;;;;;;;;;;5078029;28;20159;-75
2022/06/11 11:45:59;;;;;;;11.27;2.67;;;;;;;;;;5077991;28;20036;-75
2022/06/11 11:48:32;;;;;;;12.02;2.55;;;;;;;;;;5078359;28;20037;-76
2022/06/11 11:51:09;;;;;;;12.13;2.47;;;;;;;;;;5077921;28;20076;-76
2022/06/11 11:53:40;;;;;;;14.32;2.83;;;;;;;;;;5078314;28;20031;-76
2022/06/11 11:56:20;;;;;;;12.95;2.53;;;;;;;;;;5078195;28;20036;-75
2022/06/11 11:58:50;;;;;;;13.18;2.97;;;;;;;;;;5078068;28;20032;-76
2022/06/11 12:01:18;;;;;;;11.80;2.22;;;;;;;;;;5078184;28;20040;-75
2022/06/11 12:03:47;;;;;;;11.05;2.47;;;;;;;;;;5078055;28;20033;-75
2022/06/11 12:06:16;;;;;;;14.65;3.30;;;;;;;;;;5077319;28;20029;-76
2022/06/11 12:08:44;;;;;;;14.00;3.05;;;;;;;;;;5077978;28;20048;-76
2022/06/11 12:11:34;;;;;;;12.98;3.15;;;;;;;;;;5077459;28;20054;-75
2022/06/11 12:14:12;;;;;;;15.00;2.90;;;;;;;;;;5074715;28;20045;-76
2022/06/11 12:16:43;;;;;;;15.40;2.58;;;;;;;;;;5077805;28;20108;-74
2022/06/11 12:19:23;;;;;;;11.55;2.47;;;;;;;;;;5077683;28;20047;-75
2022/06/11 12:21:54;;;;;;;15.32;3.03;;;;;;;;;;5077312;28;20040;-75
2022/06/11 12:24:28;;;;;;;11.40;2.60;;;;;;;;;;5077525;28;20029;-75
2022/06/11 12:26:57;;;;;;;13.15;2.83;;;;;;;;;;5077865;28;20029;-75
2022/06/11 12:29:32;;;;;;;13.25;2.53;;;;;;;;;;5077663;28;20025;-75
2022/06/11 12:32:02;;;;;;;13.90;2.33;;;;;;;;;;5077917;28;20029;-75
2022/06/11 12:34:30;;;;;;;13.27;2.92;;;;;;;;;;5077634;28;20041;-75
2022/06/11 12:37:02;;;;;;;11.27;3.15;;;;;;;;;;5077934;28;20039;-75
2022/06/11 12:39:40;;;;;;;12.77;2.40;;;;;;;;;;5077895;28;20032;-75
2022/06/11 12:42:06;;;;;;;12.80;2.60;;;;;;;;;;5077045;28;20045;-74
2022/06/11 12:44:37;;;;;;;14.63;3.00;;;;;;;;;;5076853;28;20033;-75
2022/06/11 12:47:03;;;;;;;13.55;2.95;;;;;;;;;;5077736;28;20059;-75
2022/06/11 12:49:39;;;;;;;13.68;3.55;;;;;;;;;;5060574;28;20049;-75
2022/06/11 12:52:17;;;;;;;12.32;2.67;;;;;;;;;;5077696;28;20025;-74
2022/06/11 12:54:45;;;;;;;13.40;3.17;;;;;;;;;;5077516;28;20033;-74
2022/06/11 12:57:22;;;;;;;13.32;2.80;;;;;;;;;;5077950;28;20116;-75
2022/06/11 12:59:55;;;;;;;12.25;2.70;;;;;;;;;;5077644;28;20029;-75
2022/06/11 13:02:31;;;;;;;14.20;3.55;;;;;;;;;;5077718;28;20045;-75
2022/06/11 13:05:00;;;;;;;12.55;3.20;;;;;;;;;;5077679;28;20110;-76
2022/06/11 13:07:36;;;;;;;12.77;2.72;;;;;;;;;;5077615;28;20028;-76
2022/06/11 13:10:02;;;;;;;13.70;3.22;;;;;;;;;;5077633;28;20027;-75
2022/06/11 13:12:28;;;;;;;16.17;2.70;;;;;;;;;;5077724;28;20033;-75
2022/06/11 13:15:17;;;;;;;13.82;2.75;;;;;;;;;;5077496;28;20048;-75
2022/06/11 13:18:02;;;;;;;13.18;3.08;;;;;;;;;;5079719;28;20029;-75
2022/06/11 13:20:49;;;;;;;12.75;3.13;;;;;;;;;;5081285;28;20041;-75
2022/06/11 13:23:19;;;;;;;10.80;2.60;;;;;;;;;;5081173;28;20059;-75
2022/06/11 13:25:57;;;;;;;15.98;2.50;;;;;;;;;;5080951;28;20029;-76
2022/06/11 13:28:32;;;;;;;12.80;2.92;;;;;;;;;;5081211;28;20029;-76
2022/06/11 13:31:10;;;;;;;13.20;2.97;;;;;;;;;;5080993;28;20029;-76
2022/06/11 13:33:39;;;;;;;14.88;3.55;;;;;;;;;;5080985;28;20051;-76
2022/06/11 13:36:09;;;;;;;13.10;3.00;;;;;;;;;;5080959;28;20020;-76
2022/06/11 13:38:34;;;;;;;15.18;3.45;;;;;;;;;;5080947;28;20057;-76
2022/06/11 13:41:08;;;;;;;12.23;2.67;;;;;;;;;;5080864;28;20025;-76
2022/06/11 13:43:34;;;;;;;12.55;2.90;;;;;;;;;;5080118;28;20100;-76
2022/06/11 13:46:03;;;;;;;13.57;2.83;;;;;;;;;;5080666;28;20051;-76
2022/06/11 13:48:35;;;;;;;12.02;3.30;;;;;;;;;;5080745;28;20185;-75
2022/06/11 13:51:10;;;;;;;16.83;2.92;;;;;;;;;;5080596;28;20028;-75
2022/06/11 13:56:47;;;;;;;14.20;3.42;;;;;;;;;;5080564;28;20029;-75
2022/06/11 13:59:31;;;;;;;12.60;3.15;;;;;;;;;;5080462;28;20052;-76
2022/06/11 14:02:16;;;;;;;15.07;3.60;;;;;;;;;;5080537;28;20068;-76
2022/06/11 14:04:44;;;;;;;12.38;2.60;;;;;;;;;;5080523;28;20061;-75
2022/06/11 14:07:12;;;;;;;11.30;2.92;;;;;;;;;;5080243;28;20023;-76
2022/06/11 14:12:42;;;;;;;13.80;3.17;;;;;;;;;;5080422;28;20033;-76
2022/06/11 14:15:25;;;;;;;14.95;3.28;;;;;;;;;;5080320;28;20029;-76
2022/06/11 14:17:53;;;;;;;11.13;2.92;;;;;;;;;;5080276;28;20032;-75
2022/06/11 14:20:49;;;;;;;13.45;2.95;;;;;;;;;;5080251;28;20025;-76
2022/06/11 14:23:14;;;;;;;15.18;3.20;;;;;;;;;;5042416;28;20072;-75
2022/06/11 14:25:41;;;;;;;12.45;3.63;;;;;;;;;;5059101;28;20045;-75
2022/06/11 14:28:15;;;;;;;13.25;3.05;;;;;;;;;;5042024;28;20064;-76
2022/06/11 14:30:48;;;;;;;12.73;2.92;;;;;;;;;;5058948;28;20053;-76
2022/06/11 14:33:15;;;;;;;14.98;3.47;;;;;;;;;;5058814;28;20189;-76
2022/06/11 14:35:49;;;;;;;15.02;3.17;;;;;;;;;;5058815;28;20029;-76
2022/06/11 14:38:18;;;;;;;14.63;3.13;;;;;;;;;;5058791;28;20038;-76
2022/06/11 14:40:44;;;;;;;14.68;3.40;;;;;;;;;;5058566;28;20075;-76
2022/06/11 14:43:12;;;;;;;12.25;3.17;;;;;;;;;;5058424;28;20028;-76
2022/06/11 14:45:38;;;;;;;12.10;2.80;;;;;;;;;;5058424;28;20062;-76
2022/06/11 14:48:09;;;;;;;14.68;3.03;;;;;;;;;;5058660;28;20033;-76
2022/06/11 14:50:39;;;;;;;11.55;2.55;;;;;;;;;;5058619;28;20022;-75
2022/06/11 14:53:10;;;;;;;11.88;2.90;;;;;;;;;;5058562;28;20042;-75
2022/06/11 14:55:36;;;;;;;;;;;;;;;;;;5042209;28;20080;-75